Terminal Aerodrome Forecast
Issued by NWS Newport/Morehead City, NC

Home | Current Version | Previous Version | Text Only | Print | Product List | Glossary On
Versions: 1 2 3 4 5 6 7 8 9 10 11 12 13
824
FTUS42 KMHX 180521
TAFEWN
TAF
KEWN 180521Z 1806/1906 24004KT P6SM BKN035 OVC050
     FM181500 26004KT P6SM SCT025
     FM190100 00000KT P6SM FEW025 BKN200=

USA.gov is the U.S. government's official web portal to all federal, state and local government web resources and services.